Time;durP1;ratioP1;P1;durP2;ratioP2;P2;SDS_P1;SDS_P2;PMS_P1;PMS_P2;Temp;Humidity;BMP_temperature;BMP_pressure;BME280_temperature;BME280_humidity;BME280_pressure;Samples;Min_cycle;Max_cycle;Signal;HPM_P1;HPM_P2
2022/07/15 00:01:38;;;;;;;10.43;1.70;;;13.50;99.90;;;;;;5052463;28;20044;-71
2022/07/15 00:04:04;;;;;;;8.50;1.80;;;13.50;99.90;;;;;;5051442;28;20057;-72
2022/07/15 00:06:30;;;;;;;6.57;1.50;;;13.50;99.90;;;;;;5038765;28;20049;-73
2022/07/15 00:08:55;;;;;;;7.07;1.50;;;13.50;99.90;;;;;;5048054;28;20125;-72
2022/07/15 00:11:21;;;;;;;8.23;1.33;;;13.50;99.90;;;;;;5050475;28;20063;-72
2022/07/15 00:13:47;;;;;;;7.97;1.60;;;13.50;99.90;;;;;;5051103;28;20045;-72
2022/07/15 00:16:13;;;;;;;8.35;1.45;;;13.70;99.90;;;;;;5032422;28;20098;-73
2022/07/15 00:18:40;;;;;;;6.90;1.58;;;13.70;99.90;;;;;;5024240;28;20500;-72
2022/07/15 00:21:07;;;;;;;8.48;1.50;;;13.60;99.90;;;;;;5031913;28;20049;-71
2022/07/15 00:23:32;;;;;;;10.18;1.90;;;13.60;99.90;;;;;;5046223;28;20562;-72
2022/07/15 00:25:58;;;;;;;10.52;1.98;;;13.80;99.90;;;;;;5031791;28;20140;-72
2022/07/15 00:28:24;;;;;;;7.55;1.60;;;13.70;99.90;;;;;;5015583;28;20053;-72
2022/07/15 00:30:50;;;;;;;7.88;1.15;;;13.70;99.90;;;;;;5045084;28;20530;-72
2022/07/15 00:33:16;;;;;;;7.97;1.58;;;13.70;99.90;;;;;;5049592;28;20051;-72
2022/07/15 00:35:41;;;;;;;8.23;1.48;;;13.70;99.90;;;;;;5051608;28;20534;-71
2022/07/15 00:38:09;;;;;;;8.75;1.20;;;13.70;99.90;;;;;;5027840;28;20068;-72
2022/07/15 00:40:43;;;;;;;6.45;1.73;;;13.70;99.90;;;;;;5031703;28;20080;-72
2022/07/15 00:43:08;;;;;;;7.55;1.33;;;13.70;99.90;;;;;;5039497;28;20044;-73
2022/07/15 00:45:34;;;;;;;7.75;1.48;;;13.70;99.90;;;;;;5023388;28;20446;-72
2022/07/15 00:48:00;;;;;;;9.27;1.08;;;13.60;99.90;;;;;;5028783;28;20040;-72
2022/07/15 00:50:29;;;;;;;9.68;1.75;;;13.60;99.90;;;;;;5031793;28;20092;-72
2022/07/15 00:53:10;;;;;;;7.90;1.10;;;13.70;99.90;;;;;;5037509;28;20037;-72
2022/07/15 00:55:43;;;;;;;5.63;0.85;;;13.70;99.90;;;;;;5046616;28;20055;-72
2022/07/15 00:58:14;;;;;;;7.85;1.33;;;13.60;99.90;;;;;;5015263;28;20052;-71
2022/07/15 01:00:42;;;;;;;6.43;1.27;;;13.50;99.90;;;;;;5047138;28;20106;-72
2022/07/15 01:03:09;;;;;;;7.63;1.35;;;13.60;99.90;;;;;;5039279;28;20053;-73
2022/07/15 01:05:37;;;;;;;10.45;1.17;;;13.60;99.90;;;;;;5044408;28;20488;-72
2022/07/15 01:08:03;;;;;;;7.90;1.05;;;13.60;99.90;;;;;;5030497;28;20053;-71
2022/07/15 01:10:29;;;;;;;5.72;1.08;;;13.60;99.90;;;;;;5049496;28;20053;-72
2022/07/15 01:12:55;;;;;;;8.95;1.38;;;13.60;99.90;;;;;;5050147;28;20041;-72
2022/07/15 01:15:21;;;;;;;5.80;0.68;;;13.60;99.90;;;;;;5040276;28;20150;-72
2022/07/15 01:17:47;;;;;;;6.93;1.08;;;13.60;99.90;;;;;;5015170;28;20053;-72
2022/07/15 01:20:14;;;;;;;7.88;1.25;;;13.60;99.90;;;;;;5035353;28;20057;-72
2022/07/15 01:22:40;;;;;;;6.25;1.00;;;13.60;99.90;;;;;;5050389;28;20408;-72
2022/07/15 01:25:06;;;;;;;6.65;0.90;;;13.60;99.90;;;;;;5049641;28;20050;-71
2022/07/15 01:27:32;;;;;;;3.35;0.77;;;13.60;99.90;;;;;;5014549;28;20041;-71
2022/07/15 01:29:59;;;;;;;2.70;0.60;;;13.60;99.90;;;;;;5047630;28;20053;-72
2022/07/15 01:32:26;;;;;;;6.28;0.82;;;13.50;99.90;;;;;;5048883;28;20041;-72
2022/07/15 01:34:52;;;;;;;3.97;0.60;;;13.50;99.90;;;;;;5050627;28;20052;-72
2022/07/15 01:37:18;;;;;;;4.22;0.90;;;13.50;99.90;;;;;;5025958;28;20060;-70
2022/07/15 01:39:44;;;;;;;6.40;0.77;;;13.40;99.90;;;;;;5036973;28;20136;-72
2022/07/15 01:42:10;;;;;;;4.50;0.55;;;13.40;99.90;;;;;;5029662;28;20436;-72
2022/07/15 01:44:36;;;;;;;3.85;0.50;;;13.30;99.90;;;;;;5043588;28;20132;-71
2022/07/15 01:47:02;;;;;;;3.70;0.60;;;13.30;99.90;;;;;;5021518;28;20061;-72
2022/07/15 01:49:31;;;;;;;3.85;0.60;;;13.30;99.90;;;;;;5029298;28;20519;-72
2022/07/15 01:51:58;;;;;;;6.22;0.60;;;13.30;99.90;;;;;;5030548;28;20110;-72
2022/07/15 01:54:26;;;;;;;6.22;0.70;;;13.20;99.90;;;;;;5029454;28;20097;-72
2022/07/15 01:56:53;;;;;;;3.67;0.60;;;13.20;99.90;;;;;;5013717;28;20456;-71
2022/07/15 01:59:22;;;;;;;4.53;0.57;;;13.10;99.90;;;;;;5029010;28;20053;-72
2022/07/15 02:01:49;;;;;;;4.20;0.50;;;13.00;99.90;;;;;;5028701;28;20042;-71
2022/07/15 02:04:15;;;;;;;5.13;0.50;;;12.90;99.90;;;;;;5028030;28;20049;-72
2022/07/15 02:06:41;;;;;;;3.15;0.40;;;12.90;99.90;;;;;;5030528;28;20963;-72
2022/07/15 02:09:08;;;;;;;7.40;0.77;;;12.80;99.90;;;;;;5023600;28;20116;-72
2022/07/15 02:11:34;;;;;;;1.98;0.50;;;12.80;99.90;;;;;;5059514;28;20049;-72
2022/07/15 02:14:01;;;;;;;5.75;0.60;;;12.70;99.90;;;;;;5047410;28;20049;-72
2022/07/15 02:16:31;;;;;;;3.00;0.60;;;12.60;99.90;;;;;;5025852;28;20648;-71
2022/07/15 02:18:57;;;;;;;4.95;0.80;;;12.50;99.90;;;;;;5034355;28;20519;-72
2022/07/15 02:21:23;;;;;;;5.25;0.60;;;12.50;99.90;;;;;;5046374;28;20045;-71
2022/07/15 02:23:49;;;;;;;6.88;0.57;;;12.40;99.90;;;;;;5034309;28;20048;-72
2022/07/15 02:26:15;;;;;;;3.58;0.40;;;12.40;99.90;;;;;;5039751;28;20125;-73
2022/07/15 02:28:41;;;;;;;4.28;0.77;;;12.30;99.90;;;;;;5036112;28;20121;-71
2022/07/15 02:31:06;;;;;;;4.00;0.70;;;12.20;99.90;;;;;;5029417;28;20283;-71
2022/07/15 02:33:32;;;;;;;3.53;0.75;;;12.20;99.90;;;;;;5038247;28;20053;-73
2022/07/15 02:35:58;;;;;;;4.85;0.93;;;12.10;99.90;;;;;;5049495;28;20053;-72
2022/07/15 02:38:24;;;;;;;3.50;0.35;;;12.10;99.90;;;;;;5049641;28;20102;-72
2022/07/15 02:40:49;;;;;;;3.72;0.55;;;12.10;99.90;;;;;;5045122;28;20107;-73
2022/07/15 02:43:15;;;;;;;6.18;0.70;;;12.10;99.90;;;;;;5038921;28;20049;-72
2022/07/15 02:45:41;;;;;;;4.78;0.70;;;12.10;99.90;;;;;;5042610;28;20072;-71
2022/07/15 02:48:07;;;;;;;6.97;0.82;;;12.00;99.90;;;;;;5011892;28;20083;-72
2022/07/15 02:50:34;;;;;;;4.63;0.73;;;12.10;99.90;;;;;;5029513;28;20045;-72
2022/07/15 02:53:01;;;;;;;3.25;0.40;;;11.90;99.90;;;;;;5047534;28;20045;-72
2022/07/15 02:55:27;;;;;;;5.05;0.75;;;11.90;99.90;;;;;;5048655;28;20048;-72
2022/07/15 02:57:53;;;;;;;6.55;0.80;;;11.80;99.90;;;;;;5012998;28;20099;-71
2022/07/15 03:00:19;;;;;;;3.53;0.90;;;11.80;99.90;;;;;;5029361;28;20129;-72
2022/07/15 03:02:46;;;;;;;7.30;0.75;;;11.70;99.90;;;;;;5015573;28;20049;-72
2022/07/15 03:05:12;;;;;;;4.80;0.57;;;11.70;99.90;;;;;;5035797;28;20065;-72
2022/07/15 03:07:39;;;;;;;3.33;0.60;;;11.70;99.90;;;;;;5023363;28;20049;-73
2022/07/15 03:10:06;;;;;;;5.68;0.55;;;11.80;99.90;;;;;;5027857;28;20708;-71
2022/07/15 03:12:32;;;;;;;3.88;0.80;;;11.70;99.90;;;;;;5037494;28;20412;-72
2022/07/15 03:14:58;;;;;;;5.15;0.60;;;11.70;99.90;;;;;;5039808;28;20097;-71
2022/07/15 03:17:24;;;;;;;4.82;0.65;;;11.70;99.90;;;;;;5013624;28;20037;-71
2022/07/15 03:19:50;;;;;;;4.07;0.43;;;11.70;99.90;;;;;;5027852;28;20061;-71
2022/07/15 03:22:15;;;;;;;3.58;0.70;;;11.80;99.90;;;;;;5026862;28;20103;-72
2022/07/15 03:24:41;;;;;;;3.55;0.55;;;11.80;99.90;;;;;;5038755;28;20054;-71
2022/07/15 03:27:08;;;;;;;5.63;0.85;;;11.70;99.90;;;;;;5013230;28;20068;-71
2022/07/15 03:29:34;;;;;;;3.40;0.50;;;11.70;99.90;;;;;;5032088;28;20060;-71
2022/07/15 03:32:00;;;;;;;3.65;0.65;;;11.80;99.90;;;;;;5049282;28;20080;-72
2022/07/15 03:34:25;;;;;;;5.15;0.70;;;11.80;99.90;;;;;;5048149;28;20504;-71
2022/07/15 03:36:52;;;;;;;5.38;0.55;;;11.80;99.90;;;;;;5034172;28;20115;-71
2022/07/15 03:39:18;;;;;;;2.95;0.70;;;11.70;99.90;;;;;;5047321;28;20060;-71
2022/07/15 03:41:44;;;;;;;3.80;0.70;;;11.70;99.90;;;;;;5048870;28;20471;-71
2022/07/15 03:44:10;;;;;;;6.68;0.55;;;11.70;99.90;;;;;;5034469;28;20068;-71
2022/07/15 03:46:36;;;;;;;6.50;0.73;;;11.80;99.90;;;;;;5023852;28;20050;-72
2022/07/15 03:49:02;;;;;;;4.63;0.60;;;11.90;99.90;;;;;;5025071;28;20046;-72
2022/07/15 03:51:31;;;;;;;3.75;0.52;;;11.90;99.90;;;;;;5027520;28;20064;-72
2022/07/15 03:54:01;;;;;;;4.38;0.60;;;11.80;99.90;;;;;;5040526;28;20051;-72
2022/07/15 03:56:28;;;;;;;2.88;0.50;;;11.80;99.90;;;;;;5020237;28;20045;-71
2022/07/15 03:58:54;;;;;;;3.03;0.57;;;11.90;99.90;;;;;;5026652;28;20061;-72
2022/07/15 04:01:20;;;;;;;3.47;0.55;;;12.00;99.90;;;;;;5032240;28;20404;-71
2022/07/15 04:03:48;;;;;;;3.05;0.50;;;12.00;99.90;;;;;;5033114;28;20053;-71
2022/07/15 04:06:15;;;;;;;2.88;0.50;;;11.90;99.90;;;;;;5024055;28;20049;-72
2022/07/15 04:08:41;;;;;;;2.95;0.63;;;12.10;99.90;;;;;;5031961;28;20114;-72
2022/07/15 04:11:06;;;;;;;5.13;0.88;;;12.20;99.90;;;;;;5040775;28;20053;-72
2022/07/15 04:13:32;;;;;;;2.80;0.38;;;12.20;99.90;;;;;;5037211;28;20045;-71
2022/07/15 04:15:58;;;;;;;2.35;0.50;;;12.20;99.90;;;;;;5041487;28;20037;-72
2022/07/15 04:18:23;;;;;;;4.40;0.80;;;12.20;99.90;;;;;;5023685;28;20408;-72
2022/07/15 04:20:49;;;;;;;5.70;0.60;;;12.30;99.90;;;;;;5047350;28;20049;-72
2022/07/15 04:23:15;;;;;;;6.45;0.77;;;12.30;99.90;;;;;;5045916;28;20041;-71
2022/07/15 04:25:41;;;;;;;3.10;0.50;;;12.40;99.90;;;;;;5045440;28;20414;-71
2022/07/15 04:28:07;;;;;;;2.50;0.40;;;12.50;99.90;;;;;;5024590;28;20508;-71
2022/07/15 04:30:33;;;;;;;5.55;0.70;;;12.60;99.90;;;;;;5031519;28;20080;-71
2022/07/15 04:32:59;;;;;;;2.95;0.57;;;12.70;99.90;;;;;;5042881;28;20044;-72
2022/07/15 04:35:24;;;;;;;4.15;0.50;;;12.70;99.90;;;;;;5051470;28;20404;-72
2022/07/15 04:37:50;;;;;;;2.95;0.52;;;12.80;99.90;;;;;;5028891;28;20048;-73
2022/07/15 04:40:17;;;;;;;4.00;0.50;;;12.80;99.90;;;;;;5039255;28;20045;-71
2022/07/15 04:42:42;;;;;;;3.20;0.65;;;12.80;99.90;;;;;;5044077;28;20091;-72
2022/07/15 04:45:08;;;;;;;3.42;0.50;;;12.80;99.90;;;;;;5032824;28;20049;-72
2022/07/15 04:47:34;;;;;;;5.05;0.50;;;12.80;99.90;;;;;;5027527;28;20049;-72
2022/07/15 04:52:46;;;;;;;3.80;0.50;;;12.90;99.90;;;;;;5029457;28;20052;-71
2022/07/15 04:55:12;;;;;;;4.88;0.50;;;13.00;99.90;;;;;;5030048;28;20477;-72
2022/07/15 04:57:37;;;;;;;2.47;0.60;;;13.00;99.90;;;;;;5012392;28;20401;-72
2022/07/15 05:00:04;;;;;;;4.90;0.45;;;13.00;99.90;;;;;;5043184;28;20111;-72
2022/07/15 05:02:30;;;;;;;3.45;0.32;;;13.00;99.90;;;;;;5043367;28;20037;-71
2022/07/15 05:04:56;;;;;;;2.45;0.45;;;12.90;99.90;;;;;;5066527;28;20041;-71
2022/07/15 05:07:21;;;;;;;4.88;0.50;;;13.00;99.90;;;;;;5034948;28;20049;-70
2022/07/15 05:09:47;;;;;;;3.72;0.57;;;13.00;99.90;;;;;;5049567;28;20049;-71
2022/07/15 05:12:13;;;;;;;3.70;0.50;;;13.00;99.90;;;;;;5042829;28;20137;-70
2022/07/15 05:14:40;;;;;;;3.38;0.57;;;13.00;99.90;;;;;;5036440;28;20491;-72
2022/07/15 05:17:07;;;;;;;2.95;0.55;;;13.10;99.90;;;;;;5020131;28;20053;-71
2022/07/15 05:19:33;;;;;;;2.83;0.47;;;13.20;99.90;;;;;;5049258;28;20041;-71
2022/07/15 05:21:59;;;;;;;2.83;0.30;;;13.40;99.90;;;;;;5049117;28;20178;-72
2022/07/15 05:24:25;;;;;;;3.67;0.35;;;13.50;99.90;;;;;;5039242;28;20518;-72
2022/07/15 05:26:51;;;;;;;4.85;0.50;;;13.50;99.90;;;;;;5018611;28;20171;-72
2022/07/15 05:29:16;;;;;;;3.53;0.52;;;13.60;99.90;;;;;;5044455;28;20048;-71
2022/07/15 05:31:42;;;;;;;2.40;0.50;;;13.50;99.90;;;;;;5046625;28;20057;-70
2022/07/15 05:34:08;;;;;;;5.18;0.47;;;13.60;99.90;;;;;;5047181;28;20462;-71
2022/07/15 05:36:34;;;;;;;5.00;0.70;;;13.60;99.90;;;;;;5020546;28;20045;-71
2022/07/15 05:39:00;;;;;;;1.60;0.40;;;13.50;99.90;;;;;;5038398;28;20190;-71
2022/07/15 05:41:26;;;;;;;2.60;0.40;;;13.70;99.90;;;;;;5040562;28;20610;-71
2022/07/15 05:43:52;;;;;;;5.72;0.60;;;13.70;99.90;;;;;;5041465;28;20044;-71
2022/07/15 05:46:17;;;;;;;4.13;0.30;;;13.70;99.90;;;;;;5025745;28;20089;-72
2022/07/15 05:48:43;;;;;;;3.05;0.50;;;13.70;99.90;;;;;;5035708;28;20515;-70
2022/07/15 05:51:09;;;;;;;5.95;0.60;;;13.80;99.90;;;;;;5031465;28;20507;-71
2022/07/15 05:53:34;;;;;;;1.95;0.30;;;13.80;99.90;;;;;;5041167;28;20412;-71
2022/07/15 05:56:00;;;;;;;3.92;0.50;;;13.80;99.90;;;;;;5050294;28;20408;-72
2022/07/15 05:58:26;;;;;;;6.38;0.60;;;13.80;99.90;;;;;;5003606;28;20568;-71
2022/07/15 06:00:52;;;;;;;4.80;0.60;;;13.90;99.90;;;;;;5049047;28;20045;-74
2022/07/15 06:03:21;;;;;;;2.95;0.50;;;13.80;99.90;;;;;;5049115;28;20048;-74
2022/07/15 06:05:47;;;;;;;4.70;0.57;;;13.80;99.90;;;;;;5048602;28;20051;-72
2022/07/15 06:08:13;;;;;;;4.32;0.65;;;13.90;99.90;;;;;;5020693;28;20120;-72
2022/07/15 06:10:38;;;;;;;5.07;0.65;;;13.90;99.90;;;;;;5030237;28;20140;-72
2022/07/15 06:13:04;;;;;;;3.95;0.47;;;13.90;99.90;;;;;;5028827;28;20054;-72
2022/07/15 06:15:30;;;;;;;3.70;0.50;;;14.00;99.90;;;;;;5038213;28;20053;-72
2022/07/15 06:17:56;;;;;;;4.55;0.47;;;14.10;99.90;;;;;;5027007;28;20064;-72
2022/07/15 06:20:23;;;;;;;5.32;0.40;;;14.10;99.90;;;;;;5048493;28;20048;-72
2022/07/15 06:22:48;;;;;;;3.25;0.30;;;14.20;99.90;;;;;;5035152;28;20518;-73
2022/07/15 06:25:14;;;;;;;4.03;0.38;;;14.20;99.90;;;;;;5038581;28;20140;-72
2022/07/15 06:27:40;;;;;;;5.00;0.40;;;14.30;99.90;;;;;;5012260;28;20057;-73
2022/07/15 06:30:07;;;;;;;2.85;0.47;;;14.30;99.90;;;;;;5028227;28;20057;-72
2022/07/15 06:32:33;;;;;;;2.08;0.43;;;14.30;99.90;;;;;;5027567;28;20046;-71
2022/07/15 06:34:58;;;;;;;3.40;0.50;;;14.30;99.90;;;;;;5029772;28;20053;-73
2022/07/15 06:37:24;;;;;;;3.58;0.35;;;14.30;99.90;;;;;;5013647;28;20045;-71
2022/07/15 06:39:50;;;;;;;2.85;0.28;;;14.30;99.90;;;;;;5032174;28;20046;-72
2022/07/15 06:42:17;;;;;;;1.98;0.30;;;14.40;99.90;;;;;;5039236;28;20053;-72
2022/07/15 06:44:43;;;;;;;3.50;0.45;;;14.50;99.90;;;;;;5048962;28;20048;-71
2022/07/15 06:47:09;;;;;;;4.50;0.30;;;14.50;99.90;;;;;;5030455;28;20041;-72
2022/07/15 06:49:34;;;;;;;2.95;0.40;;;14.60;99.90;;;;;;5030232;28;20056;-71
2022/07/15 06:52:01;;;;;;;1.80;0.40;;;14.70;99.90;;;;;;5040529;28;20048;-71
2022/07/15 06:54:27;;;;;;;5.15;0.50;;;14.80;99.90;;;;;;5048500;28;20053;-72
2022/07/15 06:56:53;;;;;;;2.75;0.50;;;14.90;99.90;;;;;;5020751;28;20445;-75
2022/07/15 06:59:18;;;;;;;2.78;0.45;;;15.20;99.90;;;;;;5026596;28;20058;-71
2022/07/15 07:01:44;;;;;;;3.08;0.40;;;15.30;99.90;;;;;;5028311;28;20099;-72
2022/07/15 07:04:10;;;;;;;4.13;0.50;;;15.40;99.90;;;;;;5047986;28;20041;-73
2022/07/15 07:06:35;;;;;;;4.50;0.73;;;15.50;99.90;;;;;;5034569;28;20920;-74
2022/07/15 07:09:01;;;;;;;4.40;0.38;;;15.80;99.90;;;;;;5045217;28;20045;-72
2022/07/15 07:11:27;;;;;;;1.50;0.20;;;15.90;99.90;;;;;;5049226;28;20560;-72
2022/07/15 07:13:52;;;;;;;3.05;0.40;;;16.00;99.90;;;;;;5047690;28;20049;-74
2022/07/15 07:16:18;;;;;;;4.40;0.50;;;16.10;99.90;;;;;;5030611;28;20053;-72
2022/07/15 07:18:45;;;;;;;3.33;0.32;;;16.10;99.90;;;;;;5023296;28;20535;-72
2022/07/15 07:21:12;;;;;;;4.00;0.50;;;16.00;99.90;;;;;;5027826;28;20046;-71
2022/07/15 07:23:39;;;;;;;3.20;0.40;;;15.90;99.90;;;;;;5031542;28;20123;-73
2022/07/15 07:26:07;;;;;;;4.18;0.55;;;15.70;99.90;;;;;;5027735;28;20049;-75
2022/07/15 07:28:33;;;;;;;3.55;0.32;;;15.60;99.90;;;;;;5027209;28;20049;-71
2022/07/15 07:30:59;;;;;;;5.47;0.20;;;15.60;99.90;;;;;;5051054;28;20061;-72
2022/07/15 07:33:25;;;;;;;3.42;0.40;;;15.60;99.90;;;;;;5050603;28;20041;-73
2022/07/15 07:35:51;;;;;;;1.95;0.38;;;15.70;99.90;;;;;;5052988;28;20041;-72
2022/07/15 07:38:18;;;;;;;1.55;0.20;;;15.80;99.90;;;;;;5036653;28;20044;-74
2022/07/15 07:40:44;;;;;;;5.07;0.47;;;16.00;99.90;;;;;;5046547;28;20033;-75
2022/07/15 07:43:10;;;;;;;2.65;0.22;;;16.20;99.90;;;;;;5040904;28;20140;-71
2022/07/15 07:45:35;;;;;;;1.63;0.20;;;16.30;99.90;;;;;;5048721;28;20127;-72
2022/07/15 07:48:01;;;;;;;3.03;0.20;;;16.40;99.90;;;;;;5021480;28;20076;-72
2022/07/15 07:50:27;;;;;;;3.78;0.10;;;16.50;99.90;;;;;;5039675;28;20095;-74
2022/07/15 07:52:53;;;;;;;4.07;0.25;;;16.50;99.90;;;;;;5038351;28;20044;-72
2022/07/15 07:55:19;;;;;;;4.05;0.40;;;16.50;99.90;;;;;;5052589;28;20083;-74
2022/07/15 07:57:52;;;;;;;3.83;0.35;;;16.60;99.90;;;;;;5028088;28;20042;-74
2022/07/15 08:00:19;;;;;;;2.70;0.30;;;16.30;99.90;;;;;;5040382;28;20107;-72
2022/07/15 08:02:46;;;;;;;2.75;0.30;;;15.90;99.90;;;;;;5039153;28;20045;-74
2022/07/15 08:05:13;;;;;;;5.13;0.28;;;15.80;99.90;;;;;;5040246;28;20403;-74
2022/07/15 08:07:39;;;;;;;3.00;0.22;;;15.40;99.90;;;;;;5022905;28;20087;-74
2022/07/15 08:10:05;;;;;;;2.58;0.15;;;15.40;99.90;;;;;;5042013;28;20049;-75
2022/07/15 08:12:31;;;;;;;0.90;0.20;;;15.30;99.90;;;;;;5039204;28;20041;-75
2022/07/15 08:14:57;;;;;;;1.83;0.10;;;15.20;99.90;;;;;;5044776;28;20044;-75
2022/07/15 08:17:23;;;;;;;1.58;0.25;;;15.30;99.90;;;;;;5026404;28;20110;-74
2022/07/15 08:19:49;;;;;;;0.65;0.10;;;15.30;99.90;;;;;;5034372;28;20056;-74
2022/07/15 08:22:15;;;;;;;2.00;0.30;;;15.30;99.90;;;;;;5040455;28;20049;-74
2022/07/15 08:24:41;;;;;;;0.47;0.10;;;15.20;99.90;;;;;;5037339;28;20423;-74
2022/07/15 08:27:08;;;;;;;2.17;0.10;;;15.40;99.90;;;;;;5014577;28;20053;-72
2022/07/15 08:29:34;;;;;;;2.17;0.20;;;15.60;99.90;;;;;;5026903;28;20077;-74
2022/07/15 08:32:00;;;;;;;2.58;0.20;;;15.90;99.90;;;;;;5030531;28;20057;-73
2022/07/15 08:34:26;;;;;;;4.38;0.38;;;16.10;99.90;;;;;;5049483;28;20041;-73
2022/07/15 08:36:52;;;;;;;2.25;0.30;;;16.40;99.90;;;;;;5036404;28;20125;-74
2022/07/15 08:39:18;;;;;;;2.08;0.10;;;16.40;99.90;;;;;;5049624;28;20053;-74
2022/07/15 08:41:44;;;;;;;1.05;0.10;;;16.30;99.90;;;;;;5039559;28;20045;-73
2022/07/15 08:44:10;;;;;;;1.20;0.20;;;16.20;99.90;;;;;;5044900;28;20050;-73
2022/07/15 08:46:36;;;;;;;2.05;0.10;;;16.20;99.90;;;;;;5035042;28;20628;-74
2022/07/15 08:49:07;;;;;;;0.90;0.10;;;16.30;99.90;;;;;;5035368;28;20057;-74
2022/07/15 08:51:38;;;;;;;2.33;0.20;;;16.60;99.90;;;;;;5049650;28;20455;-74
2022/07/15 08:54:04;;;;;;;3.72;0.30;;;16.80;99.90;;;;;;5038253;28;20778;-74
2022/07/15 08:56:33;;;;;;;1.17;0.10;;;17.00;99.90;;;;;;5022779;28;20049;-77
2022/07/15 08:59:00;;;;;;;3.38;0.22;;;16.80;99.90;;;;;;5047186;28;20049;-74
2022/07/15 09:01:27;;;;;;;1.60;0.20;;;16.70;99.90;;;;;;5050302;28;20045;-75
2022/07/15 09:03:53;;;;;;;2.72;0.20;;;16.60;99.90;;;;;;5015095;28;20057;-75
2022/07/15 09:06:48;;;;;;;2.20;0.10;;;16.60;99.90;;;;;;5029711;28;20045;-72
2022/07/15 09:09:32;;;;;;;1.40;0.03;;;16.60;99.90;;;;;;5050210;28;20045;-76
2022/07/15 09:12:05;;;;;;;2.13;0.10;;;16.80;99.90;;;;;;5050962;28;20052;-74
2022/07/15 09:14:32;;;;;;;2.33;0.22;;;17.10;99.90;;;;;;5052317;28;20140;-74
2022/07/15 09:17:20;;;;;;;2.30;0.20;;;17.20;99.90;;;;;;5031557;28;20053;-75
2022/07/15 09:20:03;;;;;;;1.58;0.10;;;17.00;99.90;;;;;;5032233;28;20045;-73
2022/07/15 09:22:33;;;;;;;4.28;0.30;;;16.80;99.90;;;;;;5050404;28;20119;-74
2022/07/15 09:25:11;;;;;;;1.60;0.20;;;16.70;99.90;;;;;;5034199;28;20084;-73
2022/07/15 09:27:39;;;;;;;1.95;0.20;;;17.00;99.90;;;;;;5013946;28;20048;-73
2022/07/15 09:36:04;;;;;;;3.45;0.20;;;17.30;99.90;;;;;;5049099;28;20067;-74
2022/07/15 09:38:43;;;;;;;1.77;0.10;;;17.30;99.90;;;;;;5033143;28;20048;-73
2022/07/15 09:41:11;;;;;;;1.27;0.28;;;17.30;99.90;;;;;;5030424;28;20385;-73
2022/07/15 09:43:52;;;;;;;1.00;0.20;;;17.30;99.90;;;;;;5042472;28;20061;-75
2022/07/15 09:46:19;;;;;;;2.83;0.30;;;17.30;99.90;;;;;;5031721;28;20073;-72
2022/07/15 09:48:47;;;;;;;1.75;0.30;;;17.30;99.90;;;;;;5023521;28;20042;-73
2022/07/15 09:51:14;;;;;;;2.17;0.22;;;17.30;99.90;;;;;;5035572;28;20106;-73
2022/07/15 09:53:40;;;;;;;2.33;0.20;;;17.40;99.90;;;;;;5035083;28;20143;-73
2022/07/15 09:56:09;;;;;;;1.40;0.15;;;17.60;99.90;;;;;;5038876;28;20045;-74
2022/07/15 09:58:41;;;;;;;3.10;0.30;;;17.50;99.90;;;;;;5019959;28;20120;-75
2022/07/15 10:01:09;;;;;;;1.00;0.15;;;17.60;99.90;;;;;;5029098;28;20057;-75
2022/07/15 10:03:36;;;;;;;1.27;0.25;;;17.40;99.90;;;;;;5028126;28;20049;-72
2022/07/15 10:06:03;;;;;;;2.08;0.20;;;17.60;99.90;;;;;;5030227;28;20064;-73
2022/07/15 10:08:31;;;;;;;2.80;0.20;;;17.70;99.90;;;;;;5015268;28;20043;-73
2022/07/15 10:10:57;;;;;;;1.85;0.15;;;17.80;99.90;;;;;;5049513;28;20084;-75
2022/07/15 10:13:38;;;;;;;1.77;0.20;;;17.90;99.90;;;;;;5047724;28;20045;-72
2022/07/15 10:16:36;;;;;;;4.43;0.25;;;17.80;99.90;;;;;;5041086;28;20483;-73
2022/07/15 10:19:12;;;;;;;2.83;0.20;;;17.80;99.90;;;;;;5034670;28;20605;-72
2022/07/15 10:21:49;;;;;;;1.50;0.20;;;18.00;99.90;;;;;;5044561;28;20759;-72
2022/07/15 10:24:35;;;;;;;1.38;0.20;;;18.20;99.90;;;;;;5031928;28;20045;-71
2022/07/15 10:27:26;;;;;;;2.42;0.10;;;18.20;99.90;;;;;;5000971;28;20053;-72
2022/07/15 10:29:52;;;;;;;2.28;0.15;;;18.10;99.90;;;;;;5045275;28;20076;-73
2022/07/15 10:32:18;;;;;;;1.85;0.20;;;18.10;99.90;;;;;;5035812;28;20069;-72
2022/07/15 10:34:44;;;;;;;1.58;0.10;;;18.00;99.90;;;;;;5032242;28;20045;-72
2022/07/15 10:37:11;;;;;;;2.60;0.17;;;18.00;99.90;;;;;;5024589;28;20044;-75
2022/07/15 10:39:50;;;;;;;2.30;0.10;;;17.80;99.90;;;;;;5037149;28;20523;-71
2022/07/15 10:42:17;;;;;;;2.38;0.15;;;17.90;99.90;;;;;;5041568;28;20488;-73
2022/07/15 10:45:03;;;;;;;2.50;0.10;;;17.90;99.90;;;;;;5037057;28;20041;-73
2022/07/15 10:47:29;;;;;;;1.02;0.20;;;17.90;99.90;;;;;;5021572;28;20041;-73
2022/07/15 10:49:55;;;;;;;3.30;0.20;;;17.80;99.90;;;;;;5035012;28;20045;-74
2022/07/15 10:52:27;;;;;;;1.10;0.10;;;17.70;99.90;;;;;;5034104;28;20091;-73
2022/07/15 10:54:55;;;;;;;0.73;0.10;;;17.70;99.90;;;;;;5037622;28;20555;-74
2022/07/15 10:57:44;;;;;;;1.15;0.28;;;17.90;99.90;;;;;;5020438;28;20044;-73
2022/07/15 11:00:22;;;;;;;1.52;0.10;;;17.90;99.90;;;;;;5036128;28;20080;-75
2022/07/15 11:03:08;;;;;;;1.40;0.15;;;18.00;99.90;;;;;;5018564;28;20141;-74
2022/07/15 11:05:59;;;;;;;2.22;0.20;;;18.10;99.90;;;;;;5037822;28;20057;-77
2022/07/15 11:08:31;;;;;;;1.65;0.10;;;18.30;99.90;;;;;;5027018;28;20045;-74
2022/07/15 11:11:17;;;;;;;3.20;0.20;;;18.40;99.90;;;;;;5040529;28;20045;-75
2022/07/15 11:13:50;;;;;;;0.98;0.30;;;18.40;99.90;;;;;;5031177;28;20095;-74
2022/07/15 11:16:19;;;;;;;1.90;0.20;;;18.30;99.90;;;;;;5030091;28;20052;-74
2022/07/15 11:18:46;;;;;;;1.13;0.20;;;18.20;99.90;;;;;;5034646;28;20137;-73
2022/07/15 11:21:12;;;;;;;1.35;0.13;;;18.20;99.90;;;;;;5037511;28;20045;-74
2022/07/15 11:23:38;;;;;;;1.15;0.20;;;18.20;99.90;;;;;;5031328;28;20057;-75
2022/07/15 11:26:04;;;;;;;0.98;0.28;;;18.10;99.90;;;;;;5033564;28;20404;-73
2022/07/15 11:28:30;;;;;;;1.77;0.20;;;18.00;99.90;;;;;;5037020;28;20139;-73
2022/07/15 11:30:56;;;;;;;1.00;0.20;;;17.90;99.90;;;;;;5052347;28;20563;-76
2022/07/15 11:33:29;;;;;;;0.82;0.10;;;17.90;99.90;;;;;;5050958;28;20053;-73
2022/07/15 11:36:01;;;;;;;1.08;0.10;;;18.20;99.90;;;;;;5052664;28;20040;-74
2022/07/15 11:38:28;;;;;;;;;;;18.40;99.90;;;;;;5035047;28;20076;-75
2022/07/15 11:46:29;;;;;;;3.30;0.20;;;18.90;99.90;;;;;;5031539;28;20511;-74
2022/07/15 11:48:56;;;;;;;1.42;0.17;;;18.80;99.90;;;;;;5028648;28;20061;-75
2022/07/15 11:51:30;;;;;;;2.25;0.20;;;18.70;99.90;;;;;;5031361;28;20701;-73
2022/07/15 11:53:57;;;;;;;1.33;0.20;;;18.40;99.90;;;;;;5031821;28;20049;-76
2022/07/15 11:56:24;;;;;;;2.97;0.30;;;18.20;99.90;;;;;;5020027;28;20053;-74
2022/07/15 11:58:55;;;;;;;2.15;0.50;;;18.20;99.90;;;;;;5028198;28;20049;-74
2022/07/15 12:01:28;;;;;;;1.25;0.40;;;18.00;99.90;;;;;;5037741;28;20584;-74
2022/07/15 12:03:55;;;;;;;1.10;0.22;;;17.90;99.90;;;;;;5030156;28;20567;-72
2022/07/15 12:06:22;;;;;;;3.45;0.45;;;17.70;99.90;;;;;;5030934;28;20721;-72
2022/07/15 12:08:53;;;;;;;2.88;0.25;;;17.60;99.90;;;;;;5031643;28;20041;-76
2022/07/15 12:11:28;;;;;;;2.38;0.32;;;17.70;99.90;;;;;;5029405;28;20044;-74
2022/07/15 12:13:59;;;;;;;3.50;0.40;;;17.70;99.90;;;;;;5040955;28;20053;-74
2022/07/15 12:16:36;;;;;;;1.45;0.50;;;17.70;99.90;;;;;;5027435;28;20044;-74
2022/07/15 12:19:05;;;;;;;3.90;0.50;;;17.70;99.90;;;;;;5037538;28;20467;-76
2022/07/15 12:21:33;;;;;;;2.50;0.40;;;17.50;99.90;;;;;;5037931;28;20488;-74
2022/07/15 12:24:12;;;;;;;5.70;0.90;;;17.60;99.90;;;;;;5038797;28;20037;-74
2022/07/15 12:26:44;;;;;;;1.30;0.30;;;17.40;99.90;;;;;;5034123;28;20048;-73
2022/07/15 12:29:11;;;;;;;3.35;0.80;;;17.40;99.90;;;;;;5049074;28;20049;-74
2022/07/15 12:31:39;;;;;;;4.72;0.60;;;17.40;99.90;;;;;;5051517;28;20388;-74
2022/07/15 12:34:04;;;;;;;3.25;0.70;;;17.50;99.90;;;;;;5045943;28;20568;-74
2022/07/15 12:36:33;;;;;;;2.22;0.60;;;17.50;99.90;;;;;;5024748;28;20041;-74
2022/07/15 12:39:13;;;;;;;6.18;1.05;;;17.50;99.90;;;;;;5018269;28;20052;-75
2022/07/15 12:41:41;;;;;;;3.42;0.68;;;17.60;99.90;;;;;;5034039;28;20130;-74
2022/07/15 12:44:08;;;;;;;4.03;0.68;;;17.70;99.90;;;;;;5045158;28;20128;-74
2022/07/15 12:46:53;;;;;;;2.17;0.30;;;17.70;99.90;;;;;;5023324;28;20133;-75
2022/07/15 12:49:42;;;;;;;2.50;0.60;;;17.80;99.90;;;;;;5047466;28;20506;-73
2022/07/15 12:52:13;;;;;;;3.70;0.50;;;17.80;99.90;;;;;;5047082;28;20140;-73
2022/07/15 12:54:39;;;;;;;2.92;0.80;;;17.80;99.90;;;;;;5045684;28;20452;-73
2022/07/15 12:57:05;;;;;;;1.92;0.47;;;17.80;99.90;;;;;;5029569;28;20127;-73
2022/07/15 12:59:56;;;;;;;2.15;0.40;;;17.70;99.90;;;;;;5030891;28;20443;-73
2022/07/15 13:02:22;;;;;;;4.88;0.70;;;17.80;99.90;;;;;;5032500;28;20520;-74
2022/07/15 13:04:48;;;;;;;3.35;0.40;;;17.70;99.90;;;;;;5029198;28;20069;-74
2022/07/15 13:07:16;;;;;;;3.25;0.30;;;17.80;99.90;;;;;;5013389;28;20621;-73